Time;durP1;ratioP1;P1;durP2;ratioP2;P2;SDS_P1;SDS_P2;PMS_P1;PMS_P2;Temp;Humidity;BMP_temperature;BMP_pressure;BME280_temperature;BME280_humidity;BME280_pressure;Samples;Min_cycle;Max_cycle;Signal;HPM_P1;HPM_P2
2022/01/13 00:02:16;;;;;;;12.43;4.85;;;-9.10;99.90;;;;;;5053353;28;20485;-70
2022/01/13 00:04:42;;;;;;;9.25;4.28;;;-9.10;99.90;;;;;;5054695;28;20032;-70
2022/01/13 00:07:10;;;;;;;10.00;4.38;;;-9.10;99.90;;;;;;5054865;28;20389;-70
2022/01/13 00:09:36;;;;;;;12.63;4.20;;;-9.10;99.90;;;;;;5054518;28;20098;-70
2022/01/13 00:12:02;;;;;;;8.10;3.83;;;-9.10;99.90;;;;;;5053206;28;20025;-70
2022/01/13 00:19:36;;;;;;;16.80;4.88;;;-9.00;99.90;;;;;;5054918;28;20024;-70
2022/01/13 00:24:55;;;;;;;11.32;4.18;;;-9.00;99.90;;;;;;5054143;28;20044;-70
2022/01/13 00:27:23;;;;;;;9.98;4.70;;;-9.00;99.90;;;;;;5054518;28;20128;-70
2022/01/13 00:29:50;;;;;;;9.48;3.88;;;-9.00;99.90;;;;;;5054343;28;20028;-70
2022/01/13 00:32:16;;;;;;;11.77;4.32;;;-9.00;99.90;;;;;;5053004;28;20071;-70
2022/01/13 00:34:43;;;;;;;8.55;4.20;;;-9.00;99.90;;;;;;5054607;28;20017;-70
2022/01/13 00:37:10;;;;;;;9.63;4.30;;;-9.00;99.90;;;;;;5054032;28;20025;-70
2022/01/13 00:39:36;;;;;;;11.75;3.92;;;-9.00;99.90;;;;;;5054053;28;20024;-70
2022/01/13 00:42:02;;;;;;;8.75;3.80;;;-9.00;99.90;;;;;;5054147;28;20386;-70
2022/01/13 00:44:34;;;;;;;12.57;4.20;;;-9.00;99.90;;;;;;5053869;28;20104;-70
2022/01/13 00:47:00;;;;;;;7.70;3.92;;;-9.00;99.90;;;;;;5053854;28;20025;-70
2022/01/13 00:49:27;;;;;;;9.60;4.20;;;-9.00;99.90;;;;;;5053757;28;20028;-70
2022/01/13 00:51:53;;;;;;;8.93;4.18;;;-9.10;99.90;;;;;;5053659;28;20371;-70
2022/01/13 00:54:19;;;;;;;10.95;3.50;;;-9.10;99.90;;;;;;5053725;28;20025;-70
2022/01/13 00:56:44;;;;;;;6.68;3.20;;;-9.10;99.90;;;;;;5053677;28;20028;-70
2022/01/13 00:59:13;;;;;;;9.52;4.20;;;-9.10;99.90;;;;;;5053655;28;20029;-70
2022/01/13 01:01:45;;;;;;;5.85;2.75;;;-9.00;99.90;;;;;;5053428;28;20025;-70
2022/01/13 01:04:11;;;;;;;8.20;3.15;;;-9.00;99.90;;;;;;5053621;28;20052;-70
2022/01/13 01:06:37;;;;;;;8.88;3.25;;;-9.00;99.90;;;;;;5053154;28;20029;-70
2022/01/13 01:09:05;;;;;;;11.07;3.80;;;-9.10;99.90;;;;;;5053560;28;20082;-70
2022/01/13 01:11:31;;;;;;;9.35;4.18;;;-9.20;99.90;;;;;;5053448;28;20042;-70
2022/01/13 01:13:59;;;;;;;11.10;3.40;;;-9.30;99.90;;;;;;5054268;28;20075;-70
2022/01/13 01:16:26;;;;;;;9.57;3.97;;;-9.30;99.90;;;;;;5053421;28;20025;-70
2022/01/13 01:19:02;;;;;;;9.48;3.30;;;-9.30;99.90;;;;;;5052158;28;20025;-70
2022/01/13 01:26:38;;;;;;;8.65;3.20;;;-9.30;99.90;;;;;;5053611;28;20025;-70
2022/01/13 01:29:20;;;;;;;7.05;3.22;;;-9.30;99.90;;;;;;5053222;28;20021;-70
2022/01/13 01:31:51;;;;;;;11.25;4.68;;;-9.30;99.90;;;;;;5053134;28;20021;-70
2022/01/13 01:36:45;;;;;;;7.32;3.53;;;-9.20;99.90;;;;;;5053530;28;20094;-69
2022/01/13 01:39:12;;;;;;;7.15;3.70;;;-9.20;99.90;;;;;;5053201;28;20478;-69
2022/01/13 01:41:41;;;;;;;5.72;3.13;;;-9.30;99.90;;;;;;5053353;28;20410;-69
2022/01/13 01:44:09;;;;;;;8.13;3.08;;;-9.30;99.90;;;;;;5053371;28;20033;-69
2022/01/13 01:46:36;;;;;;;6.72;3.20;;;-9.30;99.90;;;;;;5053134;28;20021;-70
2022/01/13 01:49:14;;;;;;;6.72;3.28;;;-9.50;99.90;;;;;;5053034;28;20122;-70
2022/01/13 01:51:41;;;;;;;6.22;3.15;;;-9.60;99.90;;;;;;5053063;28;20402;-70
2022/01/13 01:54:07;;;;;;;6.53;3.20;;;-9.60;99.90;;;;;;5052994;28;20393;-70
2022/01/13 01:56:32;;;;;;;8.20;3.45;;;-9.60;99.90;;;;;;5053305;28;20021;-70
2022/01/13 01:59:02;;;;;;;7.30;3.70;;;-9.60;99.90;;;;;;5053042;28;20091;-70
2022/01/13 02:01:28;;;;;;;8.25;3.60;;;-9.60;99.90;;;;;;5052952;28;20104;-70
2022/01/13 02:03:54;;;;;;;7.18;3.20;;;-9.60;99.90;;;;;;5052952;28;20048;-70
2022/01/13 02:06:20;;;;;;;7.13;3.15;;;-9.60;99.90;;;;;;5053465;28;20024;-70
2022/01/13 02:08:46;;;;;;;6.65;3.15;;;-9.60;99.90;;;;;;5053456;28;20024;-70
2022/01/13 02:11:12;;;;;;;9.48;3.80;;;-9.60;99.90;;;;;;5052756;28;20031;-69
2022/01/13 02:13:45;;;;;;;7.05;3.40;;;-9.60;99.90;;;;;;5052766;28;20470;-69
2022/01/13 02:16:35;;;;;;;6.47;2.97;;;-9.70;99.90;;;;;;5051557;28;20022;-69
2022/01/13 02:18:58;;;;;;;9.15;3.83;;;-9.80;99.90;;;;;;5054306;28;20029;-69
2022/01/13 02:21:27;;;;;;;9.98;4.80;;;-9.80;99.90;;;;;;5056597;28;20440;-69
2022/01/13 02:23:55;;;;;;;9.52;3.63;;;-9.80;99.90;;;;;;5055195;28;20029;-70
2022/01/13 02:26:21;;;;;;;7.25;3.63;;;-9.80;99.90;;;;;;5056781;28;20074;-69
2022/01/13 02:28:49;;;;;;;8.90;4.10;;;-9.70;99.90;;;;;;5057322;28;20397;-70
2022/01/13 02:31:15;;;;;;;6.60;3.33;;;-9.60;99.90;;;;;;5056640;28;20024;-70
2022/01/13 02:33:41;;;;;;;8.57;3.10;;;-9.60;99.90;;;;;;5056300;28;20362;-70
2022/01/13 02:36:08;;;;;;;7.82;3.40;;;-9.60;99.90;;;;;;5056355;28;20032;-69
2022/01/13 02:38:34;;;;;;;6.78;3.20;;;-9.60;99.90;;;;;;5056293;28;20118;-69
2022/01/13 02:41:00;;;;;;;8.45;3.20;;;-9.50;99.90;;;;;;5056449;28;20025;-70
2022/01/13 02:43:30;;;;;;;6.65;3.30;;;-9.60;99.90;;;;;;5056117;28;20048;-70
2022/01/13 02:46:07;;;;;;;7.35;2.72;;;-9.60;99.90;;;;;;5054978;28;20467;-70
2022/01/13 02:48:35;;;;;;;9.98;2.85;;;-9.50;99.90;;;;;;5056662;28;20055;-70
2022/01/13 02:51:01;;;;;;;6.18;2.85;;;-9.60;99.90;;;;;;5056228;28;20028;-70
2022/01/13 02:53:27;;;;;;;7.38;3.03;;;-9.60;99.90;;;;;;5054618;28;20025;-70
2022/01/13 02:56:01;;;;;;;5.78;2.70;;;-9.60;99.90;;;;;;5054701;28;20017;-70
2022/01/13 02:58:27;;;;;;;6.03;2.90;;;-9.60;99.90;;;;;;5056530;28;20421;-69
2022/01/13 03:00:53;;;;;;;6.97;3.15;;;-9.60;99.90;;;;;;5056116;28;20029;-69
2022/01/13 03:03:20;;;;;;;6.32;2.85;;;-9.60;99.90;;;;;;5055852;28;20370;-69
2022/01/13 03:05:46;;;;;;;6.90;2.60;;;-9.70;99.90;;;;;;5056328;28;20382;-69
2022/01/13 03:08:12;;;;;;;8.43;3.20;;;-9.70;99.90;;;;;;5055777;28;20025;-69
2022/01/13 03:10:38;;;;;;;6.50;3.20;;;-9.70;99.90;;;;;;5055573;28;20025;-69
2022/01/13 03:13:05;;;;;;;9.90;4.35;;;-9.70;99.90;;;;;;5055879;28;20017;-69
2022/01/13 03:15:30;;;;;;;15.77;5.05;;;-9.70;99.90;;;;;;5056130;28;20021;-70
2022/01/13 03:17:56;;;;;;;18.60;5.03;;;-9.70;99.90;;;;;;5055573;28;20100;-70
2022/01/13 03:20:22;;;;;;;10.88;4.18;;;-9.70;99.90;;;;;;5055890;28;20036;-71
2022/01/13 03:22:48;;;;;;;13.70;5.22;;;-9.60;99.90;;;;;;5055395;28;20029;-70
2022/01/13 03:25:16;;;;;;;12.82;4.80;;;-9.60;99.90;;;;;;5055364;28;20119;-70
2022/01/13 03:27:42;;;;;;;13.23;3.78;;;-9.60;99.90;;;;;;5055412;28;20028;-70
2022/01/13 03:30:09;;;;;;;9.20;3.17;;;-9.70;99.90;;;;;;5054955;28;20103;-70
2022/01/13 03:32:38;;;;;;;7.70;3.58;;;-9.90;99.90;;;;;;5055243;28;20036;-70
2022/01/13 03:35:06;;;;;;;6.63;3.00;;;-10.00;99.90;;;;;;5055239;28;20500;-70
2022/01/13 03:37:32;;;;;;;7.68;2.97;;;-10.00;99.90;;;;;;5053944;28;20029;-70
2022/01/13 03:39:58;;;;;;;9.75;3.17;;;-10.10;99.90;;;;;;5055714;28;20447;-71
2022/01/13 03:42:24;;;;;;;11.27;3.80;;;-10.00;99.90;;;;;;5055192;28;20595;-70
2022/01/13 03:44:50;;;;;;;8.18;3.13;;;-10.00;99.90;;;;;;5055626;28;20043;-70
2022/01/13 03:47:16;;;;;;;8.77;3.45;;;-10.10;99.90;;;;;;5055006;28;20481;-70
2022/01/13 03:49:42;;;;;;;7.93;3.45;;;-10.10;99.90;;;;;;5053566;28;20025;-70
2022/01/13 03:52:20;;;;;;;8.18;2.85;;;-10.10;99.90;;;;;;5055225;28;20025;-70
2022/01/13 03:54:54;;;;;;;12.25;3.75;;;-10.00;99.90;;;;;;5054905;28;20044;-70
2022/01/13 03:57:50;;;;;;;9.48;3.88;;;-10.00;99.90;;;;;;5054908;28;20017;-70
2022/01/13 04:01:05;;;;;;;8.40;3.13;;;-10.00;99.90;;;;;;5054797;28;20068;-70
2022/01/13 04:03:31;;;;;;;12.18;3.13;;;-10.00;99.90;;;;;;5054654;28;20218;-70
2022/01/13 04:06:29;;;;;;;10.18;3.35;;;-10.00;99.90;;;;;;5054632;28;20131;-70
2022/01/13 04:08:55;;;;;;;5.82;2.78;;;-10.00;99.90;;;;;;5054450;28;20028;-70
2022/01/13 04:11:28;;;;;;;8.43;2.90;;;-10.00;99.90;;;;;;5054445;28;20025;-70
2022/01/13 04:14:01;;;;;;;9.60;3.20;;;-10.00;99.90;;;;;;5054771;28;20028;-70
2022/01/13 04:16:29;;;;;;;6.20;2.60;;;-10.10;99.90;;;;;;5054744;28;20532;-70
2022/01/13 04:19:00;;;;;;;7.35;2.65;;;-10.10;99.90;;;;;;5054629;28;20100;-70
2022/01/13 04:21:25;;;;;;;;;;;-10.20;99.90;;;;;;5055172;28;20017;-70
2022/01/13 04:23:54;;;;;;;6.35;2.70;;;-10.20;99.90;;;;;;5054130;28;19920;-70
2022/01/13 04:26:27;;;;;;;7.10;2.80;;;-10.20;99.90;;;;;;5054266;28;20078;-70
2022/01/13 04:29:01;;;;;;;8.80;3.00;;;-10.10;99.90;;;;;;5054536;28;20025;-70
2022/01/13 04:31:27;;;;;;;6.55;2.65;;;-10.10;99.90;;;;;;5052746;28;20485;-70
2022/01/13 04:33:53;;;;;;;9.57;3.38;;;-10.10;99.90;;;;;;5054418;28;20017;-70
2022/01/13 04:36:18;;;;;;;9.80;4.15;;;-10.10;99.90;;;;;;5054064;28;20017;-70
2022/01/13 04:38:44;;;;;;;11.60;4.25;;;-10.00;99.90;;;;;;5052725;28;20099;-71
2022/01/13 04:41:10;;;;;;;10.10;3.25;;;-10.00;99.90;;;;;;5053843;28;20461;-70
2022/01/13 04:43:35;;;;;;;7.88;3.38;;;-10.00;99.90;;;;;;5052595;28;20440;-70
2022/01/13 04:46:01;;;;;;;9.70;3.35;;;-10.00;99.90;;;;;;5054166;28;20035;-70
2022/01/13 04:48:27;;;;;;;6.32;2.67;;;-10.00;99.90;;;;;;5052649;28;20041;-70
2022/01/13 04:50:53;;;;;;;7.50;2.78;;;-10.00;99.90;;;;;;5053832;28;20028;-70
2022/01/13 04:53:18;;;;;;;8.02;2.63;;;-10.00;99.90;;;;;;5053690;28;20385;-70
2022/01/13 04:55:52;;;;;;;8.82;2.63;;;-10.10;99.90;;;;;;5053798;28;20028;-70
2022/01/13 04:58:21;;;;;;;6.55;2.65;;;-10.20;99.90;;;;;;5053969;28;20017;-70
2022/01/13 05:00:47;;;;;;;8.10;2.78;;;-10.20;99.90;;;;;;5053987;28;20028;-70
2022/01/13 05:03:13;;;;;;;13.07;3.85;;;-10.40;99.90;;;;;;5052287;28;20032;-70
2022/01/13 05:05:39;;;;;;;6.28;2.20;;;-10.60;99.90;;;;;;5053576;28;20029;-70
2022/01/13 05:08:05;;;;;;;6.53;2.58;;;-10.70;99.90;;;;;;5053589;28;20037;-69
2022/01/13 05:10:32;;;;;;;4.35;2.08;;;-10.70;99.90;;;;;;5053704;28;20473;-70
2022/01/13 05:12:58;;;;;;;11.18;2.45;;;-10.70;99.90;;;;;;5053833;28;20524;-69
2022/01/13 05:15:26;;;;;;;9.82;2.47;;;-10.60;99.90;;;;;;5054082;28;20347;-70
2022/01/13 05:18:17;;;;;;;7.35;3.05;;;-10.60;99.90;;;;;;5052399;28;20477;-70
2022/01/13 05:20:57;;;;;;;6.38;2.40;;;-10.50;99.90;;;;;;5052414;28;20029;-70
2022/01/13 05:23:23;;;;;;;5.68;2.25;;;-10.50;99.90;;;;;;5052027;28;20037;-70
2022/01/13 05:25:49;;;;;;;6.07;2.25;;;-10.40;99.90;;;;;;5053461;28;20029;-70
2022/01/13 05:28:15;;;;;;;9.25;3.00;;;-10.40;99.90;;;;;;5053727;28;20046;-70
2022/01/13 05:30:41;;;;;;;6.65;2.80;;;-10.30;99.90;;;;;;5052056;28;20543;-70
2022/01/13 05:33:08;;;;;;;4.90;2.47;;;-10.30;99.90;;;;;;5053271;28;20025;-70
2022/01/13 05:35:34;;;;;;;5.82;2.60;;;-10.20;99.90;;;;;;5053569;28;20048;-70
2022/01/13 05:38:00;;;;;;;6.43;2.80;;;-10.20;99.90;;;;;;5053279;28;20473;-71
2022/01/13 05:40:26;;;;;;;69.88;17.65;;;-10.20;99.90;;;;;;5053780;28;20112;-71
2022/01/13 05:42:52;;;;;;;101.25;25.60;;;-10.10;99.90;;;;;;5053187;28;20032;-71
2022/01/13 05:45:21;;;;;;;193.80;49.90;;;-10.10;99.90;;;;;;5053392;28;20513;-71
2022/01/13 05:47:51;;;;;;;203.30;60.25;;;-10.10;99.90;;;;;;5053165;28;20401;-70
2022/01/13 05:50:19;;;;;;;124.85;41.20;;;-10.20;99.90;;;;;;5053300;28;20491;-71
2022/01/13 05:52:45;;;;;;;67.38;24.80;;;-10.20;99.90;;;;;;5054410;28;20029;-71
2022/01/13 05:55:11;;;;;;;42.28;15.00;;;-10.20;99.90;;;;;;5055844;28;20025;-71
2022/01/13 05:57:37;;;;;;;19.13;8.30;;;-10.20;99.90;;;;;;5057255;28;20029;-70
2022/01/13 06:00:09;;;;;;;14.88;5.68;;;-10.30;99.90;;;;;;5057380;28;20117;-71
2022/01/13 06:02:35;;;;;;;18.48;6.20;;;-10.30;99.90;;;;;;5057243;28;20108;-70
2022/01/13 06:05:01;;;;;;;14.27;6.20;;;-10.30;99.90;;;;;;5057003;28;20108;-70
2022/01/13 06:07:27;;;;;;;14.57;6.25;;;-10.40;99.90;;;;;;5057164;28;20076;-70
2022/01/13 06:09:52;;;;;;;14.13;5.63;;;-10.50;99.90;;;;;;5055482;28;20021;-70
2022/01/13 06:12:20;;;;;;;16.25;6.82;;;-10.60;99.90;;;;;;5056702;28;20028;-70
2022/01/13 06:14:45;;;;;;;19.38;6.30;;;-10.60;99.90;;;;;;5072139;28;20025;-69
2022/01/13 06:17:11;;;;;;;19.85;6.85;;;-10.60;99.90;;;;;;5056980;28;20075;-69
2022/01/13 06:19:37;;;;;;;20.08;7.95;;;-10.50;99.90;;;;;;5056664;28;20139;-69
2022/01/13 06:22:03;;;;;;;13.77;5.88;;;-10.60;99.90;;;;;;5056515;28;20472;-70
2022/01/13 06:24:29;;;;;;;14.20;6.30;;;-10.60;99.90;;;;;;5056440;28;20490;-69
2022/01/13 06:26:55;;;;;;;8.90;3.92;;;-10.50;99.90;;;;;;5056552;28;20113;-70
2022/01/13 06:29:20;;;;;;;7.57;3.17;;;-10.50;99.90;;;;;;5056958;28;20060;-69
2022/01/13 06:31:46;;;;;;;8.32;2.90;;;-10.50;99.90;;;;;;5056461;28;20059;-70
2022/01/13 06:34:12;;;;;;;11.63;3.03;;;-10.50;99.90;;;;;;5056875;28;20024;-70
2022/01/13 06:36:37;;;;;;;6.57;2.60;;;-10.50;99.90;;;;;;5056320;28;20024;-69
2022/01/13 06:39:03;;;;;;;7.90;2.90;;;-10.50;99.90;;;;;;5056288;28;20021;-70
2022/01/13 06:41:29;;;;;;;5.20;2.42;;;-10.60;99.90;;;;;;5056144;28;20477;-70
2022/01/13 06:43:54;;;;;;;8.38;3.08;;;-10.60;99.90;;;;;;5056212;28;20025;-69
2022/01/13 06:46:20;;;;;;;15.13;3.05;;;-10.60;99.90;;;;;;5056213;28;20445;-70
2022/01/13 06:48:46;;;;;;;9.25;2.95;;;-10.60;99.90;;;;;;5056709;28;20421;-70
2022/01/13 06:51:12;;;;;;;5.22;2.35;;;-10.60;99.90;;;;;;5056301;28;20021;-70
2022/01/13 06:53:38;;;;;;;6.07;2.67;;;-10.60;99.90;;;;;;5056519;28;20024;-70
2022/01/13 06:56:05;;;;;;;11.48;5.43;;;-10.60;99.90;;;;;;5054779;28;20388;-70
2022/01/13 06:58:30;;;;;;;15.18;6.07;;;-10.60;99.90;;;;;;5055987;28;20025;-69
2022/01/13 07:00:56;;;;;;;13.77;6.38;;;-10.60;99.90;;;;;;5055939;28;20029;-70
2022/01/13 07:03:22;;;;;;;13.18;6.05;;;-10.60;99.90;;;;;;5055883;28;20079;-70
2022/01/13 07:05:48;;;;;;;9.23;4.82;;;-10.50;99.90;;;;;;5055211;28;20052;-70
2022/01/13 07:08:14;;;;;;;15.48;6.35;;;-10.50;99.90;;;;;;5055792;28;20477;-70
2022/01/13 07:10:40;;;;;;;14.82;6.20;;;-10.50;99.90;;;;;;5055591;28;20025;-70
2022/01/13 07:13:06;;;;;;;15.02;6.63;;;-10.50;99.90;;;;;;5054247;28;20021;-69
2022/01/13 07:15:32;;;;;;;13.73;6.55;;;-10.50;99.90;;;;;;5055883;28;20021;-69
2022/01/13 07:17:59;;;;;;;16.08;7.20;;;-10.50;99.90;;;;;;5055552;28;20016;-70
2022/01/13 07:20:26;;;;;;;12.25;6.70;;;-10.40;99.90;;;;;;5055616;28;20021;-69
2022/01/13 07:22:52;;;;;;;11.15;5.50;;;-10.40;99.90;;;;;;5056259;28;20021;-69
2022/01/13 07:25:18;;;;;;;11.35;5.00;;;-10.40;99.90;;;;;;5055749;28;20039;-70
2022/01/13 07:27:44;;;;;;;11.40;4.30;;;-10.40;99.90;;;;;;5055409;28;20104;-69
2022/01/13 07:30:11;;;;;;;12.52;4.45;;;-10.50;99.90;;;;;;5055568;28;20053;-69
2022/01/13 07:32:38;;;;;;;8.10;3.58;;;-10.40;99.90;;;;;;5055259;28;20040;-69
2022/01/13 07:35:04;;;;;;;11.95;3.72;;;-10.50;99.90;;;;;;5055557;28;20490;-69
2022/01/13 07:37:30;;;;;;;9.55;3.95;;;-10.50;99.90;;;;;;5055337;28;20492;-69
2022/01/13 07:39:56;;;;;;;11.38;4.88;;;-10.50;99.90;;;;;;5055478;28;20029;-70
2022/01/13 07:42:24;;;;;;;11.60;5.18;;;-10.40;99.90;;;;;;5055131;28;20112;-69
2022/01/13 07:44:50;;;;;;;9.63;4.15;;;-10.40;99.90;;;;;;5055110;28;20074;-69
2022/01/13 07:47:15;;;;;;;7.93;3.90;;;-10.40;99.90;;;;;;5053931;28;20025;-69
2022/01/13 07:49:41;;;;;;;11.75;4.90;;;-10.40;99.90;;;;;;5054908;28;20028;-69
2022/01/13 07:52:07;;;;;;;14.93;7.07;;;-10.30;99.90;;;;;;5055137;28;20435;-69
2022/01/13 07:54:32;;;;;;;13.85;4.63;;;-10.30;99.90;;;;;;5055382;28;20013;-70
2022/01/13 07:56:59;;;;;;;13.82;4.30;;;-10.30;99.90;;;;;;5055067;28;20028;-69
2022/01/13 07:59:28;;;;;;;10.35;4.18;;;-10.40;99.90;;;;;;5054900;28;20361;-69
2022/01/13 08:01:58;;;;;;;7.38;3.72;;;-10.40;99.90;;;;;;5054668;28;20100;-70
2022/01/13 08:04:24;;;;;;;11.65;3.92;;;-10.40;99.90;;;;;;5053447;28;20025;-69
2022/01/13 08:06:50;;;;;;;12.00;5.28;;;-10.40;99.90;;;;;;5054573;28;20028;-69
2022/01/13 08:09:15;;;;;;;15.38;6.28;;;-10.40;99.90;;;;;;5054468;28;20032;-69
2022/01/13 08:11:41;;;;;;;9.20;4.38;;;-10.40;99.90;;;;;;5054500;28;20466;-69
2022/01/13 08:14:07;;;;;;;10.60;4.65;;;-10.30;99.90;;;;;;5054531;28;20493;-69
2022/01/13 08:16:35;;;;;;;14.27;6.20;;;-10.30;99.90;;;;;;5053712;28;20071;-69
2022/01/13 08:21:46;;;;;;;12.00;4.72;;;-10.20;99.90;;;;;;5054617;28;20043;-69
2022/01/13 08:24:12;;;;;;;13.35;4.57;;;-10.10;99.90;;;;;;5054335;28;20107;-69
2022/01/13 08:26:38;;;;;;;11.55;4.53;;;-10.10;99.90;;;;;;5054840;28;20083;-70
2022/01/13 08:29:04;;;;;;;15.30;4.75;;;-10.10;99.90;;;;;;5054285;28;20025;-69
2022/01/13 08:31:30;;;;;;;8.73;4.13;;;-10.20;99.90;;;;;;5054031;28;20053;-69
2022/01/13 08:33:56;;;;;;;13.73;4.95;;;-10.20;99.90;;;;;;5054242;28;20051;-69
2022/01/13 08:36:22;;;;;;;14.43;5.45;;;-10.10;99.90;;;;;;5054140;28;20455;-69
2022/01/13 08:38:49;;;;;;;14.57;5.53;;;-10.10;99.90;;;;;;5052881;28;20020;-69
2022/01/13 08:41:15;;;;;;;16.58;5.88;;;-10.00;99.90;;;;;;5054089;28;20105;-69
2022/01/13 08:43:41;;;;;;;14.07;5.53;;;-9.90;99.90;;;;;;5053944;28;20426;-70
2022/01/13 08:46:07;;;;;;;15.57;5.28;;;-9.90;99.90;;;;;;5052727;28;20071;-70
2022/01/13 08:48:34;;;;;;;12.32;4.97;;;-9.90;99.90;;;;;;5054264;28;20024;-69
2022/01/13 08:51:00;;;;;;;23.55;6.03;;;-9.80;99.90;;;;;;5053775;28;20024;-69
2022/01/13 08:53:26;;;;;;;15.75;5.68;;;-9.80;99.90;;;;;;5053746;28;20024;-70
2022/01/13 08:55:54;;;;;;;19.40;6.93;;;-9.70;99.90;;;;;;5053748;28;20013;-69
2022/01/13 08:58:22;;;;;;;18.98;6.28;;;-9.70;99.90;;;;;;5053693;28;20481;-69
2022/01/13 09:00:49;;;;;;;16.08;6.50;;;-9.70;99.90;;;;;;5053671;28;20021;-69
2022/01/13 09:03:15;;;;;;;19.48;6.05;;;-9.70;99.90;;;;;;5053597;28;20036;-69
2022/01/13 09:05:42;;;;;;;20.23;6.25;;;-9.70;99.90;;;;;;5053648;28;20029;-70
2022/01/13 09:08:10;;;;;;;13.98;6.03;;;-9.60;99.90;;;;;;5053885;28;20387;-70
2022/01/13 09:10:39;;;;;;;16.77;6.47;;;-9.50;99.90;;;;;;5053769;28;20025;-69
2022/01/13 09:13:10;;;;;;;22.48;7.55;;;-9.40;99.90;;;;;;5053478;28;20053;-70
2022/01/13 09:15:39;;;;;;;19.30;5.70;;;-9.40;99.90;;;;;;5054349;28;20051;-70
2022/01/13 09:18:14;;;;;;;16.85;6.13;;;-9.40;99.90;;;;;;5053511;28;20473;-68
2022/01/13 09:20:40;;;;;;;24.52;7.93;;;-9.30;99.90;;;;;;5052247;28;20025;-68
2022/01/13 09:23:06;;;;;;;21.83;7.22;;;-9.20;99.90;;;;;;5053408;28;20032;-68
2022/01/13 09:25:33;;;;;;;20.45;6.43;;;-9.20;99.90;;;;;;5053678;28;20052;-68
2022/01/13 09:27:59;;;;;;;26.08;6.05;;;-9.10;99.90;;;;;;5053096;28;20033;-68
2022/01/13 09:30:25;;;;;;;28.52;6.88;;;-9.10;99.90;;;;;;5051891;28;20029;-68
2022/01/13 09:32:51;;;;;;;20.17;6.10;;;-9.00;99.90;;;;;;5053180;28;20101;-68
2022/01/13 09:35:17;;;;;;;24.30;7.47;;;-8.90;99.90;;;;;;5053216;28;20044;-68
2022/01/13 09:37:43;;;;;;;17.88;5.75;;;-8.80;99.90;;;;;;5053590;28;20025;-68
2022/01/13 09:40:10;;;;;;;14.82;5.80;;;-8.80;99.90;;;;;;5053215;28;20078;-68
2022/01/13 09:42:39;;;;;;;16.38;6.50;;;-8.70;99.90;;;;;;5053149;28;20032;-69
2022/01/13 09:45:06;;;;;;;24.20;6.25;;;-8.50;99.90;;;;;;5053544;28;20540;-68
2022/01/13 09:47:35;;;;;;;20.38;6.50;;;-8.40;99.90;;;;;;5053179;28;20025;-68
2022/01/13 09:50:04;;;;;;;11.55;5.18;;;-8.30;99.90;;;;;;5053044;28;20049;-68
2022/01/13 09:52:30;;;;;;;11.77;5.25;;;-8.10;99.90;;;;;;5051702;28;20044;-68
2022/01/13 09:54:56;;;;;;;16.90;7.13;;;-8.00;99.90;;;;;;5053364;28;20474;-68
2022/01/13 09:57:21;;;;;;;17.45;6.65;;;-7.90;99.90;;;;;;5053058;28;20017;-68
2022/01/13 09:59:47;;;;;;;13.13;6.43;;;-7.80;99.90;;;;;;5053014;28;20108;-68
2022/01/13 10:02:13;;;;;;;21.10;7.68;;;-7.70;99.90;;;;;;5053043;28;20029;-68
2022/01/13 10:04:53;;;;;;;16.48;7.20;;;-7.60;99.90;;;;;;5053321;28;20033;-68
2022/01/13 10:07:36;;;;;;;15.10;6.18;;;-7.50;99.90;;;;;;5053430;28;20031;-68
2022/01/13 10:10:08;;;;;;;20.02;6.05;;;-7.40;99.90;;;;;;5053512;28;20107;-68
2022/01/13 10:12:39;;;;;;;24.40;7.03;;;-7.30;99.90;;;;;;5053261;28;20066;-68
2022/01/13 10:17:54;;;;;;;14.93;5.88;;;-7.20;99.90;;;;;;5054170;28;20025;-69
2022/01/13 10:20:21;;;;;;;13.00;5.63;;;-7.10;99.90;;;;;;5052900;28;20040;-69
2022/01/13 10:22:48;;;;;;;15.75;6.80;;;-7.00;99.90;;;;;;5053226;28;20025;-69
2022/01/13 10:25:35;;;;;;;13.70;5.95;;;-7.00;99.90;;;;;;5052969;28;20036;-68
2022/01/13 10:28:21;;;;;;;19.27;6.97;;;-6.80;99.90;;;;;;5052949;28;20060;-69
2022/01/13 10:30:53;;;;;;;15.80;5.72;;;-6.70;99.90;;;;;;5051523;28;20124;-69
2022/01/13 10:33:26;;;;;;;14.35;6.43;;;-6.60;99.90;;;;;;5052784;28;20025;-69
2022/01/13 10:36:04;;;;;;;15.25;6.97;;;-6.50;99.90;;;;;;5053195;28;20473;-69
2022/01/13 10:38:56;;;;;;;12.80;6.57;;;-6.50;99.90;;;;;;5053222;28;20025;-69
2022/01/13 10:42:14;;;;;;;17.60;6.07;;;-6.30;99.90;;;;;;5056681;28;20103;-69
2022/01/13 10:44:21;;;;;;;12.75;5.40;;;-6.30;99.90;;;;;;5050549;28;20033;-69
2022/01/13 10:47:03;;;;;;;13.65;5.90;;;-6.20;99.90;;;;;;5056521;28;20021;-69
2022/01/13 10:49:33;;;;;;;22.38;6.57;;;-6.00;99.90;;;;;;5056360;28;20017;-69
2022/01/13 10:52:26;;;;;;;21.58;6.85;;;-6.00;99.90;;;;;;5056497;28;20021;-69
2022/01/13 10:55:13;;;;;;;16.58;6.20;;;-5.90;99.90;;;;;;5056385;28;20025;-69
2022/01/13 10:57:42;;;;;;;16.00;6.78;;;-5.80;99.90;;;;;;5056347;28;20461;-69
2022/01/13 11:00:33;;;;;;;13.50;6.65;;;-5.70;99.90;;;;;;5056180;28;20028;-69
2022/01/13 11:03:06;;;;;;;13.23;6.13;;;-5.60;99.90;;;;;;5056198;28;20083;-69
2022/01/13 11:05:35;;;;;;;12.48;5.50;;;-5.50;99.90;;;;;;5056180;28;20477;-69
2022/01/13 11:08:03;;;;;;;14.50;5.82;;;-5.40;99.90;;;;;;5055760;28;20033;-69
2022/01/13 11:10:29;;;;;;;15.82;6.13;;;-5.30;99.90;;;;;;5055716;28;20036;-69
2022/01/13 11:13:00;;;;;;;15.52;6.47;;;-5.20;99.90;;;;;;5055660;28;20021;-69
2022/01/13 11:15:27;;;;;;;15.20;6.43;;;-5.20;99.90;;;;;;5055713;28;20023;-69
2022/01/13 11:17:54;;;;;;;14.20;6.75;;;-5.10;99.90;;;;;;5055976;28;20128;-69
2022/01/13 11:20:22;;;;;;;12.43;5.78;;;-5.00;99.90;;;;;;5056108;28;20028;-69
2022/01/13 11:22:49;;;;;;;14.18;6.35;;;-4.90;99.90;;;;;;5055740;28;20021;-69
2022/01/13 11:25:17;;;;;;;15.48;6.13;;;-4.90;99.90;;;;;;5055426;28;20037;-69
2022/01/13 11:27:45;;;;;;;18.98;6.72;;;-4.80;99.90;;;;;;5055763;28;20021;-69
2022/01/13 11:30:13;;;;;;;12.05;5.88;;;-4.70;99.90;;;;;;5055576;28;20032;-69
2022/01/13 11:32:40;;;;;;;11.88;6.15;;;-4.60;99.90;;;;;;5055270;28;20025;-70
2022/01/13 11:35:09;;;;;;;21.25;6.15;;;-4.50;99.90;;;;;;5055945;28;20346;-69
2022/01/13 11:37:35;;;;;;;27.95;8.90;;;-4.40;99.90;;;;;;5055604;28;20103;-69
2022/01/13 11:40:02;;;;;;;26.08;7.55;;;-4.30;99.90;;;;;;5055181;28;20108;-69
2022/01/13 11:42:28;;;;;;;28.15;9.18;;;-4.20;99.90;;;;;;5055104;28;20040;-69
2022/01/13 11:45:15;;;;;;;32.35;9.82;;;-4.10;99.90;;;;;;5055347;28;20017;-69
2022/01/13 11:47:41;;;;;;;21.10;8.35;;;-4.00;99.90;;;;;;5053957;28;20060;-69
2022/01/13 11:50:16;;;;;;;21.15;8.77;;;-3.90;99.90;;;;;;5055049;28;20021;-69
2022/01/13 11:52:51;;;;;;;18.70;6.85;;;-3.80;99.90;;;;;;5055119;28;20032;-69
2022/01/13 11:55:34;;;;;;;21.40;6.70;;;-3.60;99.90;;;;;;5055771;28;20056;-70
2022/01/13 11:58:14;;;;;;;20.05;7.68;;;-3.50;99.90;;;;;;5054863;28;20020;-69
2022/01/13 12:00:43;;;;;;;19.23;6.72;;;-3.40;99.90;;;;;;5053633;28;20025;-69
2022/01/13 12:03:27;;;;;;;20.13;7.07;;;-3.40;99.90;;;;;;5054609;28;20028;-69
2022/01/13 12:05:54;;;;;;;23.35;8.05;;;-3.30;99.90;;;;;;5054783;28;20028;-70
2022/01/13 12:08:45;;;;;;;23.42;7.72;;;-3.20;99.90;;;;;;5054292;28;20104;-69
2022/01/13 12:11:35;;;;;;;24.77;7.57;;;-3.10;99.90;;;;;;5054701;28;20477;-70
2022/01/13 12:14:01;;;;;;;32.03;8.88;;;-3.10;99.90;;;;;;5054611;28;20375;-70
2022/01/13 12:17:25;;;;;;;20.35;6.40;;;-3.00;99.90;;;;;;5053243;28;20086;-70
2022/01/13 12:19:59;;;;;;;28.33;8.23;;;-3.00;99.90;;;;;;4977021;28;20478;-69
2022/01/13 12:22:39;;;;;;;24.55;9.80;;;-2.90;99.90;;;;;;4993214;28;20026;-69
2022/01/13 12:25:08;;;;;;;20.83;9.45;;;-2.80;99.90;;;;;;5039832;28;20045;-69
2022/01/13 12:27:40;;;;;;;25.08;10.95;;;-2.70;99.90;;;;;;5069689;28;20496;-70
2022/01/13 12:30:08;;;;;;;24.45;10.45;;;-2.70;99.90;;;;;;5054760;28;20377;-69
2022/01/13 12:32:49;;;;;;;17.38;7.78;;;-2.60;99.90;;;;;;5069539;28;20021;-70
2022/01/13 12:35:41;;;;;;;18.23;6.13;;;-2.60;99.90;;;;;;5054131;28;20473;-70
2022/01/13 12:38:16;;;;;;;16.65;7.90;;;-2.60;99.90;;;;;;5057623;28;20412;-70
2022/01/13 12:40:55;;;;;;;16.48;7.15;;;-2.60;99.90;;;;;;5073951;28;20020;-70
2022/01/13 12:46:18;;;;;;;16.38;6.93;;;-2.40;99.90;;;;;;5074673;28;20028;-70
2022/01/13 12:48:54;;;;;;;17.52;7.45;;;-2.40;99.90;;;;;;5074013;28;20021;-70
2022/01/13 12:51:27;;;;;;;13.88;7.07;;;-2.20;99.90;;;;;;5073899;28;20103;-71
2022/01/13 12:53:55;;;;;;;18.88;7.28;;;-2.20;99.90;;;;;;5073951;28;20028;-70
2022/01/13 12:56:23;;;;;;;16.27;6.97;;;-2.10;99.90;;;;;;5072524;28;20444;-70
2022/01/13 12:58:50;;;;;;;16.05;7.60;;;-2.00;99.90;;;;;;5072846;28;20070;-70
2022/01/13 13:01:25;;;;;;;20.92;8.02;;;-2.00;99.90;;;;;;5073915;28;20075;-71
2022/01/13 13:04:20;;;;;;;19.35;7.93;;;-1.90;99.90;;;;;;5073427;28;20047;-70
2022/01/13 13:06:49;;;;;;;23.00;10.48;;;-1.90;99.90;;;;;;5065087;28;20477;-70
2022/01/13 13:09:23;;;;;;;18.63;9.27;;;-1.80;99.90;;;;;;5074273;28;20052;-71
2022/01/13 13:11:57;;;;;;;14.02;7.32;;;-1.80;99.90;;;;;;5073837;28;20051;-71